Terminal Aerodrome Forecast
Issued by NWS

Home | Current Version | Previous Version | Graphics & Text | Print | Product List | Glossary On
Versions: 1 2 3 4 5 6 7 8 9 10 11 12 13 14 15 16 17
000
FTUS42 KMHX 201700 RRA
TAFOAJ
TAF
KOAJ 201744Z 2018/2118 02010G17KT P6SM BKN040 BKN100
     FM202200 01006KT P6SM VCSH SCT025 BKN040
     FM210600 36005KT 5SM BR VCSH BKN025
     FM211300 35007KT P6SM BKN080
      AMD LTD TO CLD VIS AND WIND=

USA.gov is the U.S. government's official web portal to all federal, state and local government web resources and services.